Time;durP1;ratioP1;P1;durP2;ratioP2;P2;SDS_P1;SDS_P2;PMS_P1;PMS_P2;Temp;Humidity;BMP_temperature;BMP_pressure;BME280_temperature;BME280_humidity;BME280_pressure;Samples;Min_cycle;Max_cycle;Signal;HPM_P1;HPM_P2
2023/10/08 00:03:08;;;;;;;;;;;11.90;99.90;;;;;;5076942;28;19942;-73
2023/10/08 00:05:37;;;;;;;;;;;11.90;99.90;;;;;;5074544;28;19962;-72
2023/10/08 00:08:04;;;;;;;;;;;11.80;99.90;;;;;;5076872;28;20014;-71
2023/10/08 00:10:37;;;;;;;;;;;11.80;99.90;;;;;;5076783;28;20057;-71
2023/10/08 00:13:03;;;;;;;;;;;11.70;99.90;;;;;;5076566;28;19916;-72
2023/10/08 00:15:32;;;;;;;;;;;11.70;99.90;;;;;;5076656;28;19916;-72
2023/10/08 00:17:58;;;;;;;;;;;11.70;99.90;;;;;;5076606;28;19916;-72
2023/10/08 00:20:35;;;;;;;;;;;11.70;99.90;;;;;;5075170;28;19958;-71
2023/10/08 00:23:02;;;;;;;;;;;11.80;99.90;;;;;;5075966;28;19912;-71
2023/10/08 00:25:28;;;;;;;;;;;11.70;99.90;;;;;;5076299;28;19916;-72
2023/10/08 00:27:53;;;;;;;;;;;11.70;99.90;;;;;;5076035;28;19943;-71
2023/10/08 00:30:19;;;;;;;;;;;11.70;99.90;;;;;;5075919;28;20377;-71
2023/10/08 00:32:44;;;;;;;;;;;11.70;99.90;;;;;;5076023;28;19912;-72
2023/10/08 00:35:13;;;;;;;;;;;11.60;99.90;;;;;;5076218;28;19912;-71
2023/10/08 00:37:40;;;;;;;;;;;11.60;99.90;;;;;;5075787;28;19909;-72
2023/10/08 00:40:12;;;;;;;;;;;11.50;99.90;;;;;;5075779;28;20542;-73
2023/10/08 00:42:45;;;;;;;;;;;11.50;99.90;;;;;;5075949;28;20001;-71
2023/10/08 00:45:13;;;;;;;;;;;11.50;99.90;;;;;;5074440;28;19912;-72
2023/10/08 00:47:43;;;;;;;;;;;11.50;99.90;;;;;;5074591;28;19962;-71
2023/10/08 00:50:10;;;;;;;;;;;11.40;99.90;;;;;;5075775;28;19919;-72
2023/10/08 00:52:45;;;;;;;;;;;11.40;99.90;;;;;;5076931;28;19920;-72
2023/10/08 00:55:21;;;;;;;;;;;11.40;99.90;;;;;;5076196;28;19909;-73
2023/10/08 00:57:49;;;;;;;;;;;11.40;99.90;;;;;;5075883;28;20365;-73
2023/10/08 01:00:31;;;;;;;;;;;11.30;99.90;;;;;;5074470;28;19908;-72
2023/10/08 01:03:01;;;;;;;;;;;11.20;99.90;;;;;;5075788;28;20323;-72
2023/10/08 01:06:10;;;;;;;;;;;11.20;99.90;;;;;;5075521;28;19916;-71
2023/10/08 01:08:27;;;;;;;;;;;11.10;99.90;;;;;;5069798;28;19908;-71
2023/10/08 01:11:00;;;;;;;;;;;11.00;99.90;;;;;;5074462;28;19909;-71
2023/10/08 01:13:26;;;;;;;;;;;10.90;99.90;;;;;;5071682;28;19916;-71
2023/10/08 01:15:52;;;;;;;;;;;10.90;99.90;;;;;;5075325;28;19912;-71
2023/10/08 01:18:28;;;;;;;;;;;10.80;99.90;;;;;;5075591;28;19915;-70
2023/10/08 01:20:54;;;;;;;;;;;10.70;99.90;;;;;;5075533;28;20415;-71
2023/10/08 01:23:21;;;;;;;;;;;10.60;99.90;;;;;;5075549;28;19974;-71
2023/10/08 01:28:45;;;;;;;;;;;10.60;99.90;;;;;;5056401;28;19915;-71
2023/10/08 01:31:12;;;;;;;;;;;10.50;99.90;;;;;;5075096;28;19920;-71
2023/10/08 01:33:38;;;;;;;;;;;10.50;99.90;;;;;;5073632;28;19913;-71
2023/10/08 01:36:04;;;;;;;;;;;10.50;99.90;;;;;;5075546;28;19962;-71
2023/10/08 01:38:30;;;;;;;;;;;10.40;99.90;;;;;;5075336;28;19912;-71
2023/10/08 01:40:56;;;;;;;;;;;10.40;99.90;;;;;;5075419;28;20007;-72
2023/10/08 01:43:22;;;;;;;;;;;10.40;99.90;;;;;;5075411;28;19952;-72
2023/10/08 01:45:52;;;;;;;;;;;10.40;99.90;;;;;;5075023;28;19916;-72
2023/10/08 01:48:25;;;;;;;;;;;10.40;99.90;;;;;;5075155;28;19908;-72
2023/10/08 01:50:54;;;;;;;;;;;10.40;99.90;;;;;;5073885;28;20320;-71
2023/10/08 01:53:20;;;;;;;;;;;10.40;99.90;;;;;;5075230;28;19970;-71
2023/10/08 01:55:48;;;;;;;;;;;10.50;99.90;;;;;;5075351;28;20376;-71
2023/10/08 01:58:16;;;;;;;;;;;10.50;99.90;;;;;;5074375;28;19915;-71
2023/10/08 02:00:42;;;;;;;;;;;10.50;99.90;;;;;;5075163;28;19958;-73
2023/10/08 02:03:08;;;;;;;;;;;10.50;99.90;;;;;;5075711;28;19970;-74
2023/10/08 02:05:34;;;;;;;;;;;10.40;99.90;;;;;;5074733;28;19917;-72
2023/10/08 02:08:03;;;;;;;;;;;10.40;99.90;;;;;;5075298;28;20393;-72
2023/10/08 02:10:29;;;;;;;;;;;10.40;99.90;;;;;;5075884;28;19913;-72
2023/10/08 02:12:55;;;;;;;;;;;10.40;99.90;;;;;;5078839;28;19909;-72
2023/10/08 02:15:21;;;;;;;;;;;10.40;99.90;;;;;;5078374;28;19912;-72
2023/10/08 02:17:48;;;;;;;;;;;10.40;99.90;;;;;;5077408;28;19912;-72
2023/10/08 02:20:16;;;;;;;;;;;10.30;99.90;;;;;;5078475;28;20466;-72
2023/10/08 02:22:41;;;;;;;;;;;10.30;99.90;;;;;;5078628;28;19916;-71
2023/10/08 02:25:11;;;;;;;;;;;10.30;99.90;;;;;;5078453;28;19909;-72
2023/10/08 02:27:37;;;;;;;;;;;10.30;99.90;;;;;;5078377;28;19916;-71
2023/10/08 02:30:05;;;;;;;;;;;10.30;99.90;;;;;;5077957;28;19912;-71
2023/10/08 02:32:32;;;;;;;;;;;10.30;99.90;;;;;;5078283;28;19970;-71
2023/10/08 02:34:57;;;;;;;;;;;10.30;99.90;;;;;;5078072;28;19917;-72
2023/10/08 02:37:23;;;;;;;;;;;10.30;99.90;;;;;;5078458;28;19961;-71
2023/10/08 02:39:49;;;;;;;;;;;10.20;99.90;;;;;;5078505;28;19909;-72
2023/10/08 02:42:14;;;;;;;;;;;10.30;99.90;;;;;;5078337;28;20050;-71
2023/10/08 02:44:43;;;;;;;;;;;10.20;99.90;;;;;;5076782;28;19960;-71
2023/10/08 02:47:11;;;;;;;;;;;10.20;99.90;;;;;;5078091;28;19955;-71
2023/10/08 02:49:40;;;;;;;;;;;10.20;99.90;;;;;;5096246;28;19916;-73
2023/10/08 02:52:06;;;;;;;;;;;10.10;99.90;;;;;;5075717;28;19914;-73
2023/10/08 02:54:31;;;;;;;;;;;10.10;99.90;;;;;;5077852;28;20378;-72
2023/10/08 02:57:00;;;;;;;;;;;10.10;99.90;;;;;;5077762;28;19912;-72
2023/10/08 02:59:38;;;;;;;;;;;10.10;99.90;;;;;;5077968;28;19918;-71
2023/10/08 03:02:04;;;;;;;;;;;10.00;99.90;;;;;;5073158;28;19912;-71
2023/10/08 03:04:30;;;;;;;;;;;10.00;99.90;;;;;;5076902;28;19943;-72
2023/10/08 03:06:56;;;;;;;;;;;10.00;99.90;;;;;;5076924;28;19916;-71
2023/10/08 03:09:31;;;;;;;;;;;10.00;99.90;;;;;;5076632;28;19912;-71
2023/10/08 03:11:58;;;;;;;;;;;10.00;99.90;;;;;;5074187;28;19909;-71
2023/10/08 03:14:23;;;;;;;;;;;10.00;99.90;;;;;;5077426;28;19947;-71
2023/10/08 03:16:51;;;;;;;;;;;10.00;99.90;;;;;;5076198;28;19908;-71
2023/10/08 03:19:19;;;;;;;;;;;10.00;99.90;;;;;;5077191;28;19999;-72
2023/10/08 03:21:51;;;;;;;;;;;9.90;99.90;;;;;;5076786;28;20007;-73
2023/10/08 03:24:29;;;;;;;;;;;9.80;99.90;;;;;;5077374;28;19920;-71
2023/10/08 03:27:20;;;;;;;;;;;9.70;99.90;;;;;;5077315;28;20413;-72
2023/10/08 03:29:46;;;;;;;;;;;9.60;99.90;;;;;;5074009;28;20380;-71
2023/10/08 03:32:18;;;;;;;;;;;9.50;99.90;;;;;;5076431;28;19931;-72
2023/10/08 03:34:46;;;;;;;;;;;9.40;99.90;;;;;;5077070;28;19954;-71
2023/10/08 03:37:15;;;;;;;;;;;9.30;99.90;;;;;;5077042;28;19919;-71
2023/10/08 03:42:25;;;;;;;;;;;9.20;99.90;;;;;;5071574;28;19915;-71
2023/10/08 03:44:52;;;;;;;;;;;9.20;99.90;;;;;;5075662;28;19908;-71
2023/10/08 03:47:18;;;;;;;;;;;9.10;99.90;;;;;;5076696;28;19962;-71
2023/10/08 03:49:50;;;;;;;;;;;9.10;99.90;;;;;;5076754;28;19919;-71
2023/10/08 03:52:16;;;;;;;;;;;8.90;99.90;;;;;;5076724;28;20322;-72
2023/10/08 03:54:48;;;;;;;;;;;9.00;99.90;;;;;;5075617;28;19940;-71
2023/10/08 03:57:19;;;;;;;;;;;8.90;99.90;;;;;;5071684;28;20307;-72
2023/10/08 03:59:48;;;;;;;;;;;9.00;99.90;;;;;;5076751;28;20273;-72
2023/10/08 04:02:14;;;;;;;;;;;9.00;99.90;;;;;;5076680;28;20425;-71
2023/10/08 04:04:49;;;;;;;;;;;9.00;99.90;;;;;;5076421;28;20019;-72
2023/10/08 04:12:34;;;;;;;;;;;9.10;99.90;;;;;;5076768;28;19913;-71
2023/10/08 04:15:01;;;;;;;;;;;9.10;99.90;;;;;;5075087;28;19912;-71
2023/10/08 04:17:26;;;;;;;;;;;9.10;99.90;;;;;;5074875;28;19918;-71
2023/10/08 04:19:52;;;;;;;;;;;9.20;99.90;;;;;;5075111;28;19912;-71
2023/10/08 04:22:18;;;;;;;;;;;9.20;99.90;;;;;;5076190;28;20408;-71
2023/10/08 04:24:44;;;;;;;;;;;9.20;99.90;;;;;;5078007;28;19923;-71
2023/10/08 04:27:10;;;;;;;;;;;9.30;99.90;;;;;;5075989;28;19916;-71
2023/10/08 04:29:37;;;;;;;;;;;9.30;99.90;;;;;;5076044;28;19943;-71
2023/10/08 04:32:12;;;;;;;;;;;9.40;99.90;;;;;;5074450;28;19921;-71
2023/10/08 04:34:37;;;;;;;;;;;9.40;99.90;;;;;;5074616;28;20007;-71
2023/10/08 04:37:12;;;;;;;;;;;9.40;99.90;;;;;;5074790;28;19952;-71
2023/10/08 04:39:40;;;;;;;;;;;9.30;99.90;;;;;;5074458;28;19908;-71
2023/10/08 04:42:08;;;;;;;;;;;9.30;99.90;;;;;;5076071;28;19999;-71
2023/10/08 04:44:34;;;;;;;;;;;9.30;99.90;;;;;;5074684;28;19999;-72
2023/10/08 04:47:04;;;;;;;;;;;9.30;99.90;;;;;;5075732;28;20050;-71
2023/10/08 04:49:32;;;;;;;;;;;9.30;99.90;;;;;;5075662;28;20389;-71
2023/10/08 04:52:13;;;;;;;;;;;9.20;99.90;;;;;;5074821;28;19908;-71
2023/10/08 04:54:40;;;;;;;;;;;9.20;99.90;;;;;;5075170;28;20046;-71
2023/10/08 04:57:06;;;;;;;;;;;9.20;99.90;;;;;;5075930;28;20558;-71
2023/10/08 04:59:33;;;;;;;;;;;9.20;99.90;;;;;;5075444;28;19923;-72
2023/10/08 05:17:57;;;;;;;;;;;9.10;99.90;;;;;;5076232;28;19913;-71
2023/10/08 05:28:46;;;;;;;;;;;9.10;99.90;;;;;;5075827;28;19915;-71
2023/10/08 05:36:19;;;;;;;;;;;9.10;99.90;;;;;;5075784;28;19920;-71
2023/10/08 05:39:00;;;;;;;;;;;9.10;99.90;;;;;;5075479;28;19948;-71
2023/10/08 05:41:28;;;;;;;;;;;9.00;99.90;;;;;;5073391;28;20687;-71
2023/10/08 05:52:14;;;;;;;;;;;9.10;99.90;;;;;;5079546;28;20376;-71
2023/10/08 05:54:57;;;;;;;;;;;9.10;99.90;;;;;;5079085;28;19909;-71
2023/10/08 05:57:38;;;;;;;;;;;9.10;99.90;;;;;;5079017;28;19912;-71
2023/10/08 06:08:10;;;;;;;;;;;9.20;99.90;;;;;;5067217;28;19970;-72
2023/10/08 06:18:28;;;;;;;;;;;9.30;99.90;;;;;;5078822;28;19919;-71
2023/10/08 06:20:58;;;;;;;;;;;9.30;99.90;;;;;;5077415;28;19916;-71
2023/10/08 06:23:24;;;;;;;;;;;9.40;99.90;;;;;;5078346;28;19912;-72
2023/10/08 06:25:56;;;;;;;;;;;9.50;99.90;;;;;;5078183;28;19913;-71
2023/10/08 06:28:25;;;;;;;;;;;9.50;99.90;;;;;;5078786;28;20398;-72
2023/10/08 06:30:55;;;;;;;;;;;9.60;99.90;;;;;;5078334;28;19943;-72
2023/10/08 06:33:22;;;;;;;;;;;9.60;99.90;;;;;;5078428;28;19934;-72
2023/10/08 06:36:01;;;;;;;;;;;9.70;99.90;;;;;;5078477;28;19917;-72
2023/10/08 06:38:30;;;;;;;;;;;9.80;99.90;;;;;;5066959;28;20284;-72
2023/10/08 06:40:59;;;;;;;;;;;9.90;99.90;;;;;;5078439;28;19909;-72
2023/10/08 06:43:28;;;;;;;;;;;10.00;99.90;;;;;;5076952;28;19916;-72
2023/10/08 06:45:57;;;;;;;;;;;10.10;99.90;;;;;;5077738;28;19919;-72
2023/10/08 06:48:23;;;;;;;;;;;10.10;99.90;;;;;;5076651;28;19916;-72
2023/10/08 06:50:50;;;;;;;;;;;10.10;99.90;;;;;;5076491;28;19917;-72
2023/10/08 06:53:17;;;;;;;;;;;10.10;99.90;;;;;;5076623;28;19915;-71
2023/10/08 06:55:48;;;;;;;;;;;10.20;99.90;;;;;;5077509;28;19909;-72
2023/10/08 06:58:14;;;;;;;;;;;10.30;99.90;;;;;;5076733;28;19975;-72
2023/10/08 07:00:46;;;;;;;;;;;10.40;99.90;;;;;;5076318;28;19920;-72
2023/10/08 07:03:14;;;;;;;;;;;10.50;99.90;;;;;;5078041;28;19916;-72
2023/10/08 07:05:53;;;;;;;;;;;10.60;99.90;;;;;;5075359;28;19916;-72
2023/10/08 07:08:26;;;;;;;;;;;10.70;99.90;;;;;;5077594;28;19908;-72
2023/10/08 07:10:53;;;;;;;;;;;10.80;99.90;;;;;;5077647;28;19909;-71
2023/10/08 07:13:21;;;;;;;;;;;10.80;99.90;;;;;;5076167;28;19912;-72
2023/10/08 07:15:51;;;;;;;;;;;10.90;99.90;;;;;;5077408;28;19908;-71
2023/10/08 07:18:24;;;;;;;;;;;11.00;99.90;;;;;;5077579;28;19935;-72
2023/10/08 07:20:54;;;;;;;;;;;11.20;99.90;;;;;;5077268;28;19912;-72
2023/10/08 07:23:24;;;;;;;;;;;11.30;99.90;;;;;;5077423;28;20270;-72
2023/10/08 07:26:05;;;;;;;;;;;11.40;99.90;;;;;;5077362;28;19962;-72
2023/10/08 07:28:30;;;;;;;;;;;11.60;99.90;;;;;;5077403;28;19912;-72
2023/10/08 07:30:57;;;;;;;;;;;11.70;99.90;;;;;;5077118;28;19951;-71
2023/10/08 07:33:24;;;;;;;;;;;11.80;99.90;;;;;;5075757;28;19927;-72
2023/10/08 07:35:57;;;;;;;;;;;12.00;99.90;;;;;;5075272;28;19912;-71
2023/10/08 07:38:27;;;;;;;;;;;12.10;99.90;;;;;;5075717;28;19908;-71
2023/10/08 07:40:54;;;;;;;;;;;12.30;99.90;;;;;;5077204;28;19943;-71
2023/10/08 07:43:20;;;;;;;;;;;12.70;99.90;;;;;;5075880;28;20296;-70
2023/10/08 07:45:46;;;;;;;;;;;13.00;99.90;;;;;;5076957;28;19916;-71
2023/10/08 07:48:11;;;;;;;;;;;13.20;99.90;;;;;;5076783;28;19912;-71
2023/10/08 07:50:45;;;;;;;;;;;13.40;99.90;;;;;;5076579;28;19935;-73
2023/10/08 07:53:17;;;;;;;;;;;13.60;99.90;;;;;;5076778;28;19921;-72
2023/10/08 07:55:44;;;;;;;;;;;13.80;99.90;;;;;;5075890;28;20011;-71
2023/10/08 07:58:11;;;;;;;;;;;14.10;99.90;;;;;;5076924;28;19955;-71
2023/10/08 08:00:39;;;;;;;;;;;14.40;99.90;;;;;;5076404;28;20011;-71
2023/10/08 08:03:04;;;;;;;;;;;14.80;99.90;;;;;;5075917;28;19917;-71
2023/10/08 08:05:30;;;;;;;;;;;15.00;99.90;;;;;;5074633;28;19924;-71
2023/10/08 08:07:58;;;;;;;;;;;15.20;99.90;;;;;;5071381;28;19913;-71
2023/10/08 08:10:24;;;;;;;;;;;15.40;99.90;;;;;;5074870;28;19956;-72
2023/10/08 08:12:54;;;;;;;;;;;15.60;99.90;;;;;;5076230;28;20428;-71
2023/10/08 08:15:20;;;;;;;;;;;15.80;99.90;;;;;;5073959;28;19913;-72
2023/10/08 08:17:48;;;;;;;;;;;16.10;99.90;;;;;;5075880;28;20328;-71
2023/10/08 08:20:21;;;;;;;;;;;16.40;99.90;;;;;;5075206;28;19908;-71
2023/10/08 08:22:50;;;;;;;;;;;16.70;99.90;;;;;;5074735;28;19966;-71
2023/10/08 08:25:16;;;;;;;;;;;17.00;99.90;;;;;;5074673;28;19909;-71
2023/10/08 08:27:46;;;;;;;;;;;17.30;99.90;;;;;;5074858;28;19969;-71
2023/10/08 08:30:15;;;;;;;;;;;17.40;99.90;;;;;;5074523;28;19935;-71
2023/10/08 08:32:43;;;;;;;;;;;17.60;99.90;;;;;;5075847;28;20312;-71
2023/10/08 08:35:09;;;;;;;;;;;17.80;99.90;;;;;;5076052;28;20276;-71
2023/10/08 08:37:35;;;;;;;;;;;18.00;99.90;;;;;;5076023;28;19920;-71
2023/10/08 08:40:05;;;;;;;;;;;18.10;99.90;;;;;;5076222;28;19954;-71
2023/10/08 08:42:31;;;;;;;;;;;18.20;99.90;;;;;;5070966;28;19935;-71
2023/10/08 08:44:57;;;;;;;;;;;18.30;99.90;;;;;;5075769;28;19912;-71
2023/10/08 08:47:24;;;;;;;;;;;18.40;99.90;;;;;;5075061;28;19917;-72
2023/10/08 08:49:53;;;;;;;;;;;18.60;99.90;;;;;;5074507;28;19908;-73
2023/10/08 08:52:18;;;;;;;;;;;18.90;99.90;;;;;;5075477;28;19978;-72
2023/10/08 08:54:44;;;;;;;;;;;19.10;99.90;;;;;;5074385;28;19909;-72
2023/10/08 08:57:13;;;;;;;;;;;19.30;99.90;;;;;;5075331;28;19912;-73
2023/10/08 08:59:47;;;;;;;;;;;19.70;99.90;;;;;;5074281;28;19909;-73
2023/10/08 09:02:14;;;;;;;;;;;19.80;99.90;;;;;;5075836;28;19924;-71
2023/10/08 09:04:39;;;;;;;;;;;19.90;99.90;;;;;;5075560;28;20383;-71
2023/10/08 09:07:05;;;;;;;;;;;20.20;99.90;;;;;;5075305;28;19916;-73
2023/10/08 09:09:31;;;;;;;;;;;20.40;99.90;;;;;;5075681;28;19908;-71
2023/10/08 09:11:57;;;;;;;;;;;20.50;99.90;;;;;;5075605;28;19917;-71
2023/10/08 09:14:25;;;;;;;;;;;20.60;99.90;;;;;;5075876;28;19909;-71
2023/10/08 09:16:51;;;;;;;;;;;20.80;99.90;;;;;;5074157;28;19908;-74
2023/10/08 09:19:21;;;;;;;;;;;20.90;99.90;;;;;;5075605;28;19920;-73
2023/10/08 09:22:04;;;;;;;;;;;21.00;99.90;;;;;;5077761;28;19959;-72
2023/10/08 09:24:33;;;;;;;;;;;21.10;99.90;;;;;;5073047;28;19912;-72
2023/10/08 09:27:02;;;;;;;;;;;21.20;99.90;;;;;;5079329;28;19924;-73
2023/10/08 09:29:28;;;;;;;;;;;21.30;99.90;;;;;;5079517;28;19935;-73
2023/10/08 09:31:55;;;;;;;;;;;21.50;99.90;;;;;;5079317;28;19924;-73
2023/10/08 09:34:22;;;;;;;;;;;21.70;99.90;;;;;;5079218;28;19912;-73
2023/10/08 09:36:48;;;;;;;;;;;21.80;99.90;;;;;;5079243;28;19974;-75
2023/10/08 09:39:23;;;;;;;;;;;21.70;99.90;;;;;;5077890;28;20009;-76
2023/10/08 09:41:57;;;;;;;;;;;21.80;99.90;;;;;;5077556;28;19919;-77
2023/10/08 09:44:26;;;;;;;;;;;21.80;99.90;;;;;;5078276;28;19908;-75
2023/10/08 09:46:54;;;;;;;;;;;22.00;99.90;;;;;;5080176;28;19912;-76
2023/10/08 09:49:24;;;;;;;;;;;22.10;99.90;;;;;;5079308;28;19919;-74
2023/10/08 09:51:50;;;;;;;;;;;22.10;99.90;;;;;;5079536;28;20442;-73
2023/10/08 09:54:21;;;;;;;;;;;22.20;99.90;;;;;;5095264;28;20057;-75
2023/10/08 09:56:47;;;;;;;;;;;22.40;99.90;;;;;;5077609;28;19908;-77
2023/10/08 09:59:14;;;;;;;;;;;22.50;99.90;;;;;;5078687;28;19923;-75
2023/10/08 10:01:41;;;;;;;;;;;22.60;99.90;;;;;;5079042;28;19916;-77
2023/10/08 10:04:10;;;;;;;;;;;22.70;99.90;;;;;;5079031;28;20454;-76
2023/10/08 10:06:36;;;;;;;;;;;22.70;99.90;;;;;;5078894;28;19926;-76
2023/10/08 10:09:07;;;;;;;;;;;22.80;99.90;;;;;;5077359;28;19909;-75
2023/10/08 10:11:32;;;;;;;;;;;22.90;99.90;;;;;;5078760;28;19909;-73
2023/10/08 10:14:02;;;;;;;;;;;22.90;99.90;;;;;;5079030;28;19920;-74
2023/10/08 10:16:27;;;;;;;;;;;23.00;99.90;;;;;;5079526;28;19912;-76
2023/10/08 10:19:00;;;;;;;;;;;23.00;99.20;;;;;;5078849;28;19919;-77
2023/10/08 10:21:29;;;;;;;;;;;23.10;99.50;;;;;;5077153;28;19918;-76
2023/10/08 10:23:56;;;;;;;;;;;23.20;99.40;;;;;;5073729;28;19913;-75
2023/10/08 10:26:28;;;;;;;;;;;23.20;99.20;;;;;;5077725;28;20011;-76
2023/10/08 10:29:15;;;;;;;;;;;23.30;99.00;;;;;;5077345;28;19916;-76
2023/10/08 10:31:44;;;;;;;;;;;23.40;97.70;;;;;;5076300;28;19920;-76
2023/10/08 10:34:11;;;;;;;;;;;23.40;97.40;;;;;;5077992;28;19935;-77
2023/10/08 10:36:40;;;;;;;;;;;23.50;96.80;;;;;;5078439;28;19965;-76
2023/10/08 10:39:27;;;;;;;;;;;23.60;96.70;;;;;;5070886;28;20379;-77
2023/10/08 10:41:57;;;;;;;;;;;23.60;96.80;;;;;;5077891;28;20348;-78
2023/10/08 10:44:25;;;;;;;;;;;23.60;96.50;;;;;;5076619;28;20000;-76
2023/10/08 10:46:51;;;;;;;;;;;23.70;96.00;;;;;;5078298;28;19920;-76
2023/10/08 10:49:31;;;;;;;;;;;23.70;96.80;;;;;;5078095;28;19980;-77
2023/10/08 10:51:57;;;;;;;;;;;23.90;94.70;;;;;;5076836;28;19917;-77
2023/10/08 10:54:23;;;;;;;;;;;23.80;95.10;;;;;;5078123;28;20296;-75
2023/10/08 10:57:05;;;;;;;;;;;23.90;94.30;;;;;;5076448;28;19917;-76
2023/10/08 10:59:44;;;;;;;;;;;24.00;94.20;;;;;;5078145;28;19908;-77
2023/10/08 11:02:21;;;;;;;;;;;24.00;94.70;;;;;;5078030;28;19916;-75
2023/10/08 11:04:49;;;;;;;;;;;24.10;93.80;;;;;;5077689;28;20297;-75
2023/10/08 11:07:19;;;;;;;;;;;24.20;94.00;;;;;;5077809;28;19970;-76
2023/10/08 11:09:46;;;;;;;;;;;24.30;93.70;;;;;;5075677;28;19913;-76
2023/10/08 11:12:14;;;;;;;;;;;24.20;94.40;;;;;;5077743;28;19913;-76
2023/10/08 11:14:46;;;;;;;;;;;24.20;94.00;;;;;;5077293;28;19991;-76
2023/10/08 11:17:12;;;;;;;;;;;24.20;94.50;;;;;;5077713;28;20007;-76
2023/10/08 11:19:37;;;;;;;;;;;24.40;93.60;;;;;;5077206;28;19971;-76
2023/10/08 11:22:05;;;;;;;;;;;24.40;92.10;;;;;;5077563;28;19908;-76
2023/10/08 11:24:34;;;;;;;;;;;24.50;93.00;;;;;;5077350;28;20365;-76
2023/10/08 11:27:15;;;;;;;;;;;24.60;92.60;;;;;;5077738;28;20585;-76
2023/10/08 11:29:46;;;;;;;;;;;24.60;92.70;;;;;;5076991;28;19991;-77
2023/10/08 11:32:12;;;;;;;;;;;24.70;92.70;;;;;;5077157;28;19985;-76
2023/10/08 11:34:41;;;;;;;;;;;24.80;92.30;;;;;;5077192;28;20398;-76
2023/10/08 11:37:19;;;;;;;;;;;24.70;92.60;;;;;;5076257;28;20379;-78
2023/10/08 11:39:48;;;;;;;;;;;24.80;92.60;;;;;;5077075;28;19915;-78
2023/10/08 11:42:59;;;;;;;;;;;24.80;92.10;;;;;;5077007;28;20003;-77
2023/10/08 11:44:59;;;;;;;;;;;24.90;91.40;;;;;;5069435;28;19919;-76
2023/10/08 11:47:31;;;;;;;;;;;25.00;92.10;;;;;;5077045;28;19916;-77
2023/10/08 11:50:10;;;;;;;;;;;24.90;91.60;;;;;;5077429;28;20369;-77
2023/10/08 11:52:41;;;;;;;;;;;24.90;91.50;;;;;;5075000;28;19909;-77
2023/10/08 11:55:07;;;;;;;;;;;25.00;91.30;;;;;;5076893;28;19913;-77
2023/10/08 11:57:35;;;;;;;;;;;25.00;91.60;;;;;;5075632;28;19909;-76
2023/10/08 12:00:18;;;;;;;;;;;25.10;91.60;;;;;;5074287;28;20008;-77
2023/10/08 12:02:45;;;;;;;;;;;25.20;91.00;;;;;;5077088;28;19912;-77
2023/10/08 12:05:19;;;;;;;;;;;25.20;90.50;;;;;;5076792;28;20230;-77
2023/10/08 12:07:50;;;;;;;;;;;25.30;90.00;;;;;;5076035;28;19935;-76
2023/10/08 12:10:22;;;;;;;;;;;25.30;90.00;;;;;;5077218;28;19927;-78
2023/10/08 12:12:54;;;;;;;;;;;25.40;91.20;;;;;;5076688;28;20388;-77
2023/10/08 12:15:20;;;;;;;;;;;25.50;89.10;;;;;;5075939;28;19912;-79
2023/10/08 12:20:34;;;;;;;;;;;25.50;87.20;;;;;;5076894;28;20419;-78
2023/10/08 12:22:59;;;;;;;;;;;25.60;86.40;;;;;;5076921;28;19912;-78
2023/10/08 12:25:25;;;;;;;;;;;25.60;87.40;;;;;;5077005;28;20272;-78
2023/10/08 12:27:51;;;;;;;;;;;25.60;85.20;;;;;;5076724;28;20380;-77
2023/10/08 12:30:16;;;;;;;;;;;25.70;84.90;;;;;;5076099;28;19920;-77
2023/10/08 12:32:42;;;;;;;;;;;25.90;84.90;;;;;;5076073;28;19999;-77
2023/10/08 12:35:12;;;;;;;;;;;25.90;83.50;;;;;;5076124;28;20008;-77
2023/10/08 12:37:44;;;;;;;;;;;26.10;85.90;;;;;;5074796;28;19913;-77
2023/10/08 12:40:22;;;;;;;;;;;26.10;86.00;;;;;;5064380;28;19944;-78
2023/10/08 12:42:54;;;;;;;;;;;26.20;85.90;;;;;;5076352;28;20384;-78
2023/10/08 12:45:22;;;;;;;;;;;26.10;83.00;;;;;;5076075;28;19924;-77
2023/10/08 12:47:49;;;;;;;;;;;26.10;80.90;;;;;;5075858;28;19913;-78
2023/10/08 12:50:15;;;;;;;;;;;26.00;82.40;;;;;;5073927;28;19915;-77
2023/10/08 12:52:52;;;;;;;;;;;26.10;82.90;;;;;;5075928;28;19916;-77
2023/10/08 12:55:23;;;;;;;;;;;26.00;84.80;;;;;;5075902;28;20433;-77
2023/10/08 12:57:55;;;;;;;;;;;26.00;79.80;;;;;;5075753;28;19915;-76
2023/10/08 13:00:24;;;;;;;;;;;26.10;82.00;;;;;;5075581;28;19940;-77
2023/10/08 13:02:53;;;;;;;;;;;26.10;83.40;;;;;;5063846;28;20007;-77
2023/10/08 13:05:27;;;;;;;;;;;26.00;82.00;;;;;;5075540;28;19909;-79
2023/10/08 13:07:56;;;;;;;;;;;26.00;80.60;;;;;;5075541;28;19920;-77
2023/10/08 13:10:26;;;;;;;;;;;26.10;81.20;;;;;;5075619;28;19935;-76
2023/10/08 13:12:51;;;;;;;;;;;26.20;78.50;;;;;;5074399;28;19912;-77
2023/10/08 13:15:17;;;;;;;;;;;26.40;79.70;;;;;;5075666;28;19920;-77
2023/10/08 13:17:45;;;;;;;;;;;26.40;77.90;;;;;;5074870;28;20459;-77
2023/10/08 13:20:14;;;;;;;;;;;26.50;78.10;;;;;;5075354;28;19908;-76
2023/10/08 13:22:40;;;;;;;;;;;26.50;79.20;;;;;;5074352;28;19927;-77
2023/10/08 13:25:06;;;;;;;;;;;26.60;79.30;;;;;;5074467;28;19908;-78
2023/10/08 13:27:32;;;;;;;;;;;26.60;78.50;;;;;;5075934;28;19939;-78
2023/10/08 13:29:58;;;;;;;;;;;26.60;77.20;;;;;;5075996;28;19999;-78
2023/10/08 13:32:24;;;;;;;;;;;26.70;77.60;;;;;;5075277;28;19938;-77
2023/10/08 13:34:49;;;;;;;;;;;26.70;78.50;;;;;;5075495;28;19909;-78
2023/10/08 13:37:15;;;;;;;;;;;26.80;77.50;;;;;;5075585;28;20297;-78
2023/10/08 13:39:41;;;;;;;;;;;26.70;78.40;;;;;;5075532;28;19999;-78
2023/10/08 13:42:07;;;;;;;;;;;26.80;77.30;;;;;;5075371;28;20390;-76
2023/10/08 13:44:34;;;;;;;;;;;26.80;77.20;;;;;;5075483;28;19995;-79
2023/10/08 13:47:05;;;;;;;;;;;26.80;77.20;;;;;;5073742;28;19912;-77
2023/10/08 13:49:31;;;;;;;;;;;26.90;77.60;;;;;;5073864;28;19908;-75
2023/10/08 13:51:56;;;;;;;;;;;27.00;77.60;;;;;;5075346;28;19915;-81
2023/10/08 13:54:22;;;;;;;;;;;27.00;77.80;;;;;;5074141;28;19912;-76
2023/10/08 13:56:48;;;;;;;;;;;26.90;78.50;;;;;;5075219;28;20281;-79
2023/10/08 13:59:14;;;;;;;;;;;26.90;77.20;;;;;;5074970;28;19974;-79
2023/10/08 14:01:43;;;;;;;;;;;26.90;76.10;;;;;;5074764;28;20025;-77
2023/10/08 14:04:09;;;;;;;;;;;26.90;76.00;;;;;;5073931;28;19916;-79
2023/10/08 14:06:35;;;;;;;;;;;26.90;76.50;;;;;;5075510;28;19920;-80
2023/10/08 14:09:01;;;;;;;;;;;27.10;74.50;;;;;;5077742;28;19995;-76
2023/10/08 14:11:30;;;;;;;;;;;27.20;74.10;;;;;;5078816;28;19908;-74
2023/10/08 14:13:56;;;;;;;;;;;27.20;74.90;;;;;;5077182;28;20399;-74
2023/10/08 14:16:28;;;;;;;;;;;27.20;75.10;;;;;;5078666;28;19909;-74
2023/10/08 14:18:59;;;;;;;;;;;27.20;74.00;;;;;;5078765;28;20033;-76
2023/10/08 14:21:30;;;;;;;;;;;27.30;74.20;;;;;;5077360;28;19915;-75
2023/10/08 14:24:05;;;;;;;;;;;27.40;75.90;;;;;;5078696;28;19913;-74
2023/10/08 14:26:36;;;;;;;;;;;27.30;75.20;;;;;;5078762;28;19926;-77
2023/10/08 14:29:10;;;;;;;;;;;27.40;76.20;;;;;;5078829;28;20392;-75
2023/10/08 14:31:39;;;;;;;;;;;27.30;72.90;;;;;;5078039;28;19925;-75
2023/10/08 14:34:05;;;;;;;;;;;27.30;73.00;;;;;;5077052;28;20348;-76
2023/10/08 14:44:46;;;;;;;;;;;27.30;73.10;;;;;;5078060;28;20327;-76
2023/10/08 14:47:12;;;;;;;;;;;27.30;72.30;;;;;;5078522;28;19913;-76
2023/10/08 14:49:38;;;;;;;;;;;27.30;72.10;;;;;;5078344;28;19919;-76
2023/10/08 14:52:05;;;;;;;;;;;27.30;71.20;;;;;;5077378;28;20450;-75
2023/10/08 14:54:31;;;;;;;;;;;27.20;71.00;;;;;;5077121;28;19916;-76
2023/10/08 14:56:57;;;;;;;;;;;27.10;73.80;;;;;;5076708;28;19913;-76
2023/10/08 14:59:23;;;;;;;;;;;27.00;72.20;;;;;;5076673;28;19916;-76
2023/10/08 15:01:50;;;;;;;;;;;26.80;74.50;;;;;;5077897;28;19919;-76
2023/10/08 15:04:16;;;;;;;;;;;26.70;72.70;;;;;;5078018;28;19909;-76
2023/10/08 15:06:43;;;;;;;;;;;26.50;75.10;;;;;;5077887;28;19916;-76
2023/10/08 15:09:09;;;;;;;;;;;26.40;74.90;;;;;;5076529;28;19916;-76
2023/10/08 15:11:36;;;;;;;;;;;26.30;73.70;;;;;;5076204;28;20373;-75
2023/10/08 15:14:09;;;;;;;;;;;26.20;79.40;;;;;;5077767;28;19908;-75
2023/10/08 15:16:36;;;;;;;;;;;26.00;76.30;;;;;;5073251;28;19912;-75
2023/10/08 15:19:03;;;;;;;;;;;26.00;76.00;;;;;;5076208;28;19930;-76
2023/10/08 15:21:32;;;;;;;;;;;26.00;76.30;;;;;;5075260;28;20288;-75
2023/10/08 15:23:58;;;;;;;;;;;25.90;78.50;;;;;;5076605;28;19916;-76
2023/10/08 15:26:23;;;;;;;;;;;25.90;76.50;;;;;;5076443;28;19921;-75
2023/10/08 15:28:49;;;;;;;;;;;25.80;75.60;;;;;;5077956;28;20022;-75
2023/10/08 15:31:14;;;;;;;;;;;25.80;76.80;;;;;;5075713;28;19946;-74
2023/10/08 15:33:40;;;;;;;;;;;25.70;77.40;;;;;;5077185;28;20003;-74
2023/10/08 15:36:06;;;;;;;;;;;25.60;77.10;;;;;;5077184;28;19994;-74
2023/10/08 15:38:31;;;;;;;;;;;25.70;77.50;;;;;;5076655;28;19913;-75
2023/10/08 15:40:58;;;;;;;;;;;25.70;78.10;;;;;;5075561;28;20788;-76
2023/10/08 15:43:26;;;;;;;;;;;25.60;78.30;;;;;;5077025;28;19908;-75
2023/10/08 15:45:52;;;;;;;;;;;25.40;78.00;;;;;;5076734;28;19919;-75